Rejestracja

Wszystkie dane podawane są w czasie UTC za wyjątkiem miejsc gdzie jest jednoznacznie podane, że jest inaczej. Dane podawane w serwisie mają charakter informacyjny!!!
Informacje w sprawie dostępu do serwisu pod numerem tel. +48 261-828-559 lub +48 261-828-138
Informacja dla żołnierzy i pracowników wojska: Prosimy o niezwłoczną zmianę adresu e-mail w profilu użytkownika na pocztę w domenie @ron.mil.pl

Aktualna Pogoda
 
Pogoda w Polsce
21°C Szczecin 19°C Suwałki 20°C Warszawa 21°C Poznan
20°C Opole 18°C Kraków 19°C Rzeszów
Więcej miast w Polsce

Pogoda w Europie
22°C Berlin 22°C Paryz 22°C Bruksela 17°C Oslo
19°C Praga 19°C Zagrzeb
Więcej miast w Europie

Metary wojskowe test
METAR EPBC 060700Z 05006KT CAVOK 21/12 Q1024=
METAR EPCE 060700Z 15005KT 120V180 CAVOK 21/11 Q1025 RMK 207 054 1/1=
METAR EPDA 060700Z 18006KT 140V210 CAVOK 22/11 Q1024 RMK 217 051 1/1=
METAR EPDE 060700Z 06012KT 9999 FEW100 23/16 Q1023 RMK 233 063 2/2=
METAR EPIR 060700Z 11008KT 9999 NSC 20/11 Q1024 RMK 199 055 1/1=
METAR EPKS 060700Z AUTO 09006KT 050V120 9999 NCD 21/11 Q1024 RMK 211 053 ///=
METAR EPLK 060700Z 08004KT 030V090 9999 BKN060 18/13 Q1023 RMK 183 072 6/6=
METAR EPLY 060700Z 06006KT 9999 BKN070 17/13 Q1023 RMK 170 075 5/5=
METAR EPMB 060700Z VRB02KT 9999 NSC 20/12 Q1025 RMK 204 059 0/0=
METAR EPMI 060700Z 12006KT 090V160 9999 NSC 22/09 Q1024 RMK 216 043 1/1=
METAR EPMM 060700Z 09009KT 050V110 9999 SCT077 20/13 Q1024 RMK 199 065 4/4=
METAR EPNA 060700Z 14002KT 9999 FEW200 20/07 Q1024 RMK 204 043 2/2=
METAR EPOK 060700Z 20007KT CAVOK 22/11 Q1025 RMK 218 049 1/1=
METAR EPPR 060700Z 12006KT 9999 NSC 21/10 Q1025 RMK 212 049 1/1=
METAR EPPW 060700Z 08008KT 9999 NSC 21/13 Q1024 RMK 207 062 1/1=
METAR EPSN 060700Z AUTO 17006KT 130V200 9999 NCD 22/09 Q1024 RMK 219 043 ///=
METAR EPTM 060700Z 05008KT 9999 NSC 21/15 Q1023 RMK 206 069 4/3=


 

Prawa autorskie©2007 SSH SZ RP. Wszelkie prawa zastrzeżone.